sensor_id;sensor_type;location;lat;lon;timestamp;P1;durP1;ratioP1;P2;durP2;ratioP2
10920;SDS011;5513;50.580;8.818;2023-03-31T00:01:12;4.87;;;1.30;;
10920;SDS011;5513;50.580;8.818;2023-03-31T00:03:41;4.07;;;1.30;;
10920;SDS011;5513;50.580;8.818;2023-03-31T00:06:10;4.60;;;1.17;;
10920;SDS011;5513;50.580;8.818;2023-03-31T00:08:44;2.90;;;0.87;;
10920;SDS011;5513;50.580;8.818;2023-03-31T00:11:19;1.97;;;0.90;;
10920;SDS011;5513;50.580;8.818;2023-03-31T00:13:49;1.97;;;1.10;;
10920;SDS011;5513;50.580;8.818;2023-03-31T00:16:19;5.30;;;1.27;;
10920;SDS011;5513;50.580;8.818;2023-03-31T00:18:47;6.63;;;1.00;;
10920;SDS011;5513;50.580;8.818;2023-03-31T00:21:17;4.47;;;1.23;;
10920;SDS011;5513;50.580;8.818;2023-03-31T00:24:00;2.83;;;1.00;;
10920;SDS011;5513;50.580;8.818;2023-03-31T00:26:30;4.70;;;1.07;;
10920;SDS011;5513;50.580;8.818;2023-03-31T00:29:01;10.63;;;1.37;;
10920;SDS011;5513;50.580;8.818;2023-03-31T00:31:30;4.63;;;1.03;;
10920;SDS011;5513;50.580;8.818;2023-03-31T00:33:59;3.40;;;1.10;;
10920;SDS011;5513;50.580;8.818;2023-03-31T00:36:27;3.57;;;1.40;;
10920;SDS011;5513;50.580;8.818;2023-03-31T00:38:57;7.07;;;1.20;;
10920;SDS011;5513;50.580;8.818;2023-03-31T00:41:28;6.00;;;1.30;;
10920;SDS011;5513;50.580;8.818;2023-03-31T00:44:03;5.87;;;1.00;;
10920;SDS011;5513;50.580;8.818;2023-03-31T00:46:36;3.07;;;1.07;;
10920;SDS011;5513;50.580;8.818;2023-03-31T00:49:10;3.67;;;1.10;;
10920;SDS011;5513;50.580;8.818;2023-03-31T00:51:43;3.73;;;1.30;;
10920;SDS011;5513;50.580;8.818;2023-03-31T00:54:13;4.73;;;1.10;;
10920;SDS011;5513;50.580;8.818;2023-03-31T00:56:45;3.00;;;1.47;;
10920;SDS011;5513;50.580;8.818;2023-03-31T00:59:20;5.80;;;1.40;;
10920;SDS011;5513;50.580;8.818;2023-03-31T01:01:54;5.20;;;1.23;;
10920;SDS011;5513;50.580;8.818;2023-03-31T01:04:29;4.43;;;1.30;;
10920;SDS011;5513;50.580;8.818;2023-03-31T01:07:03;4.77;;;1.10;;
10920;SDS011;5513;50.580;8.818;2023-03-31T01:09:38;6.10;;;1.40;;
10920;SDS011;5513;50.580;8.818;2023-03-31T01:12:07;4.67;;;1.10;;
10920;SDS011;5513;50.580;8.818;2023-03-31T01:14:40;5.93;;;1.60;;
10920;SDS011;5513;50.580;8.818;2023-03-31T01:17:08;4.97;;;1.50;;
10920;SDS011;5513;50.580;8.818;2023-03-31T01:19:41;6.50;;;1.70;;
10920;SDS011;5513;50.580;8.818;2023-03-31T01:22:31;5.37;;;1.60;;
10920;SDS011;5513;50.580;8.818;2023-03-31T01:25:20;7.73;;;1.93;;
10920;SDS011;5513;50.580;8.818;2023-03-31T01:28:16;4.37;;;1.77;;
10920;SDS011;5513;50.580;8.818;2023-03-31T01:43:43;7.27;;;1.70;;
10920;SDS011;5513;50.580;8.818;2023-03-31T01:46:20;7.83;;;1.90;;
10920;SDS011;5513;50.580;8.818;2023-03-31T01:48:58;6.83;;;1.77;;
10920;SDS011;5513;50.580;8.818;2023-03-31T01:51:33;5.17;;;1.83;;
10920;SDS011;5513;50.580;8.818;2023-03-31T01:54:07;4.13;;;1.40;;
10920;SDS011;5513;50.580;8.818;2023-03-31T01:56:45;8.70;;;2.07;;
10920;SDS011;5513;50.580;8.818;2023-03-31T01:59:17;9.67;;;2.00;;
10920;SDS011;5513;50.580;8.818;2023-03-31T02:01:55;7.07;;;1.83;;
10920;SDS011;5513;50.580;8.818;2023-03-31T02:04:27;7.70;;;1.77;;
10920;SDS011;5513;50.580;8.818;2023-03-31T02:07:00;6.03;;;1.90;;
10920;SDS011;5513;50.580;8.818;2023-03-31T02:09:35;6.33;;;1.83;;
10920;SDS011;5513;50.580;8.818;2023-03-31T02:12:10;4.97;;;1.50;;
10920;SDS011;5513;50.580;8.818;2023-03-31T02:14:39;7.47;;;1.90;;
10920;SDS011;5513;50.580;8.818;2023-03-31T02:17:13;9.17;;;2.10;;
10920;SDS011;5513;50.580;8.818;2023-03-31T02:19:46;7.43;;;1.63;;
10920;SDS011;5513;50.580;8.818;2023-03-31T02:22:18;5.10;;;1.63;;
10920;SDS011;5513;50.580;8.818;2023-03-31T02:24:49;5.90;;;1.70;;
10920;SDS011;5513;50.580;8.818;2023-03-31T02:27:22;7.10;;;1.73;;
10920;SDS011;5513;50.580;8.818;2023-03-31T02:29:53;7.20;;;1.77;;
10920;SDS011;5513;50.580;8.818;2023-03-31T02:32:26;4.43;;;1.50;;
10920;SDS011;5513;50.580;8.818;2023-03-31T02:34:58;9.00;;;1.87;;
10920;SDS011;5513;50.580;8.818;2023-03-31T02:37:27;6.83;;;1.73;;
10920;SDS011;5513;50.580;8.818;2023-03-31T02:39:58;6.23;;;1.90;;
10920;SDS011;5513;50.580;8.818;2023-03-31T02:42:33;5.47;;;2.00;;
10920;SDS011;5513;50.580;8.818;2023-03-31T02:45:02;9.53;;;3.30;;
10920;SDS011;5513;50.580;8.818;2023-03-31T02:47:32;6.60;;;3.30;;
10920;SDS011;5513;50.580;8.818;2023-03-31T02:50:01;6.97;;;3.57;;
10920;SDS011;5513;50.580;8.818;2023-03-31T02:52:42;8.90;;;3.50;;
10920;SDS011;5513;50.580;8.818;2023-03-31T02:55:23;7.53;;;3.47;;
10920;SDS011;5513;50.580;8.818;2023-03-31T03:01:21;7.70;;;3.20;;
10920;SDS011;5513;50.580;8.818;2023-03-31T03:04:01;10.07;;;3.50;;
10920;SDS011;5513;50.580;8.818;2023-03-31T03:06:40;8.30;;;3.30;;
10920;SDS011;5513;50.580;8.818;2023-03-31T03:09:25;7.67;;;3.77;;
10920;SDS011;5513;50.580;8.818;2023-03-31T03:12:06;10.80;;;4.17;;
10920;SDS011;5513;50.580;8.818;2023-03-31T03:14:41;13.33;;;5.43;;
10920;SDS011;5513;50.580;8.818;2023-03-31T03:17:15;12.37;;;5.93;;
10920;SDS011;5513;50.580;8.818;2023-03-31T03:19:49;13.67;;;5.97;;
10920;SDS011;5513;50.580;8.818;2023-03-31T03:22:20;9.97;;;6.27;;
10920;SDS011;5513;50.580;8.818;2023-03-31T03:24:48;10.30;;;6.10;;
10920;SDS011;5513;50.580;8.818;2023-03-31T03:27:16;15.00;;;7.40;;
10920;SDS011;5513;50.580;8.818;2023-03-31T03:29:45;13.20;;;7.13;;
10920;SDS011;5513;50.580;8.818;2023-03-31T03:32:13;14.80;;;7.90;;
10920;SDS011;5513;50.580;8.818;2023-03-31T03:34:43;13.67;;;7.87;;
10920;SDS011;5513;50.580;8.818;2023-03-31T03:37:12;15.87;;;8.50;;
10920;SDS011;5513;50.580;8.818;2023-03-31T03:39:40;16.53;;;8.77;;
10920;SDS011;5513;50.580;8.818;2023-03-31T03:42:08;20.40;;;10.27;;
10920;SDS011;5513;50.580;8.818;2023-03-31T03:44:37;15.80;;;9.40;;
10920;SDS011;5513;50.580;8.818;2023-03-31T03:47:05;14.80;;;9.80;;
10920;SDS011;5513;50.580;8.818;2023-03-31T03:49:33;22.13;;;11.83;;
10920;SDS011;5513;50.580;8.818;2023-03-31T03:52:03;18.83;;;11.77;;
10920;SDS011;5513;50.580;8.818;2023-03-31T03:54:34;22.70;;;12.70;;
10920;SDS011;5513;50.580;8.818;2023-03-31T03:57:02;28.63;;;14.60;;
10920;SDS011;5513;50.580;8.818;2023-03-31T03:59:32;36.87;;;21.23;;
10920;SDS011;5513;50.580;8.818;2023-03-31T04:02:00;20.23;;;14.00;;
10920;SDS011;5513;50.580;8.818;2023-03-31T04:04:29;20.43;;;13.40;;
10920;SDS011;5513;50.580;8.818;2023-03-31T04:06:57;19.97;;;12.20;;
10920;SDS011;5513;50.580;8.818;2023-03-31T04:09:28;19.57;;;13.23;;
10920;SDS011;5513;50.580;8.818;2023-03-31T04:11:56;17.33;;;12.67;;
10920;SDS011;5513;50.580;8.818;2023-03-31T04:14:24;22.57;;;12.53;;
10920;SDS011;5513;50.580;8.818;2023-03-31T04:16:52;19.47;;;13.20;;
10920;SDS011;5513;50.580;8.818;2023-03-31T04:19:25;24.87;;;15.63;;
10920;SDS011;5513;50.580;8.818;2023-03-31T04:21:53;23.03;;;12.90;;
10920;SDS011;5513;50.580;8.818;2023-03-31T04:24:33;19.80;;;12.27;;
10920;SDS011;5513;50.580;8.818;2023-03-31T04:27:04;24.40;;;11.70;;
10920;SDS011;5513;50.580;8.818;2023-03-31T04:29:33;18.97;;;12.13;;
10920;SDS011;5513;50.580;8.818;2023-03-31T04:32:02;23.33;;;12.70;;
10920;SDS011;5513;50.580;8.818;2023-03-31T04:34:31;19.57;;;11.70;;
10920;SDS011;5513;50.580;8.818;2023-03-31T04:37:02;17.53;;;10.03;;
10920;SDS011;5513;50.580;8.818;2023-03-31T04:39:33;17.50;;;9.93;;
10920;SDS011;5513;50.580;8.818;2023-03-31T04:42:01;22.10;;;12.27;;
10920;SDS011;5513;50.580;8.818;2023-03-31T04:44:30;23.97;;;12.63;;
10920;SDS011;5513;50.580;8.818;2023-03-31T04:46:58;19.13;;;11.33;;
10920;SDS011;5513;50.580;8.818;2023-03-31T04:49:28;21.03;;;9.20;;
10920;SDS011;5513;50.580;8.818;2023-03-31T04:51:59;15.47;;;9.57;;
10920;SDS011;5513;50.580;8.818;2023-03-31T04:54:27;19.57;;;10.17;;
10920;SDS011;5513;50.580;8.818;2023-03-31T04:56:57;21.37;;;10.97;;
10920;SDS011;5513;50.580;8.818;2023-03-31T04:59:26;15.83;;;9.50;;
10920;SDS011;5513;50.580;8.818;2023-03-31T05:01:55;16.13;;;9.23;;
10920;SDS011;5513;50.580;8.818;2023-03-31T05:04:23;16.83;;;8.80;;
10920;SDS011;5513;50.580;8.818;2023-03-31T05:06:52;15.87;;;9.20;;
10920;SDS011;5513;50.580;8.818;2023-03-31T05:09:20;19.47;;;9.33;;
10920;SDS011;5513;50.580;8.818;2023-03-31T05:11:49;19.83;;;9.17;;
10920;SDS011;5513;50.580;8.818;2023-03-31T05:14:18;15.20;;;8.97;;
10920;SDS011;5513;50.580;8.818;2023-03-31T05:16:47;19.53;;;9.00;;
10920;SDS011;5513;50.580;8.818;2023-03-31T05:19:16;15.93;;;8.90;;
10920;SDS011;5513;50.580;8.818;2023-03-31T05:21:44;19.30;;;8.27;;
10920;SDS011;5513;50.580;8.818;2023-03-31T05:24:12;20.70;;;7.97;;
10920;SDS011;5513;50.580;8.818;2023-03-31T05:26:41;20.20;;;8.40;;
10920;SDS011;5513;50.580;8.818;2023-03-31T05:29:13;17.67;;;8.67;;
10920;SDS011;5513;50.580;8.818;2023-03-31T05:31:44;13.03;;;7.33;;
10920;SDS011;5513;50.580;8.818;2023-03-31T05:34:12;13.43;;;6.40;;
10920;SDS011;5513;50.580;8.818;2023-03-31T05:36:41;19.00;;;6.33;;
10920;SDS011;5513;50.580;8.818;2023-03-31T05:39:10;14.20;;;6.93;;
10920;SDS011;5513;50.580;8.818;2023-03-31T05:41:38;12.70;;;6.17;;
10920;SDS011;5513;50.580;8.818;2023-03-31T05:44:07;13.23;;;6.47;;
10920;SDS011;5513;50.580;8.818;2023-03-31T05:46:35;14.47;;;6.23;;
10920;SDS011;5513;50.580;8.818;2023-03-31T05:49:05;11.90;;;5.23;;
10920;SDS011;5513;50.580;8.818;2023-03-31T05:51:33;11.17;;;5.60;;
10920;SDS011;5513;50.580;8.818;2023-03-31T05:54:02;12.87;;;5.37;;
10920;SDS011;5513;50.580;8.818;2023-03-31T05:56:31;14.27;;;5.40;;
10920;SDS011;5513;50.580;8.818;2023-03-31T05:59:02;11.07;;;4.50;;
10920;SDS011;5513;50.580;8.818;2023-03-31T06:01:31;11.23;;;4.23;;
10920;SDS011;5513;50.580;8.818;2023-03-31T06:03:59;15.97;;;4.40;;
10920;SDS011;5513;50.580;8.818;2023-03-31T06:06:29;12.03;;;3.60;;
10920;SDS011;5513;50.580;8.818;2023-03-31T06:09:03;15.00;;;4.23;;
10920;SDS011;5513;50.580;8.818;2023-03-31T06:11:31;8.97;;;3.57;;
10920;SDS011;5513;50.580;8.818;2023-03-31T06:14:00;11.83;;;3.87;;
10920;SDS011;5513;50.580;8.818;2023-03-31T06:16:28;10.67;;;3.53;;
10920;SDS011;5513;50.580;8.818;2023-03-31T06:18:57;13.50;;;3.83;;
10920;SDS011;5513;50.580;8.818;2023-03-31T06:21:25;11.67;;;4.30;;
10920;SDS011;5513;50.580;8.818;2023-03-31T06:23:55;12.33;;;3.90;;
10920;SDS011;5513;50.580;8.818;2023-03-31T06:26:26;13.90;;;3.77;;
10920;SDS011;5513;50.580;8.818;2023-03-31T06:28:56;11.87;;;3.73;;
10920;SDS011;5513;50.580;8.818;2023-03-31T06:31:28;9.57;;;4.50;;
10920;SDS011;5513;50.580;8.818;2023-03-31T06:33:57;13.73;;;4.63;;
10920;SDS011;5513;50.580;8.818;2023-03-31T06:36:26;13.93;;;4.20;;
10920;SDS011;5513;50.580;8.818;2023-03-31T06:38:55;11.97;;;4.43;;
10920;SDS011;5513;50.580;8.818;2023-03-31T06:41:23;9.97;;;4.10;;
10920;SDS011;5513;50.580;8.818;2023-03-31T06:43:52;15.47;;;4.30;;
10920;SDS011;5513;50.580;8.818;2023-03-31T06:46:20;12.10;;;4.50;;
10920;SDS011;5513;50.580;8.818;2023-03-31T06:48:48;19.63;;;7.93;;
10920;SDS011;5513;50.580;8.818;2023-03-31T06:51:17;16.97;;;5.83;;
10920;SDS011;5513;50.580;8.818;2023-03-31T06:53:45;10.90;;;5.57;;
10920;SDS011;5513;50.580;8.818;2023-03-31T06:56:15;11.07;;;5.10;;
10920;SDS011;5513;50.580;8.818;2023-03-31T06:58:44;10.87;;;5.00;;
10920;SDS011;5513;50.580;8.818;2023-03-31T07:01:12;11.73;;;5.70;;
10920;SDS011;5513;50.580;8.818;2023-03-31T07:03:40;17.33;;;6.07;;
10920;SDS011;5513;50.580;8.818;2023-03-31T07:06:08;10.13;;;5.97;;
10920;SDS011;5513;50.580;8.818;2023-03-31T07:08:37;11.40;;;6.57;;
10920;SDS011;5513;50.580;8.818;2023-03-31T07:11:08;8.53;;;6.37;;
10920;SDS011;5513;50.580;8.818;2023-03-31T07:13:38;10.37;;;5.90;;
10920;SDS011;5513;50.580;8.818;2023-03-31T07:16:06;11.57;;;8.73;;
10920;SDS011;5513;50.580;8.818;2023-03-31T07:18:36;12.90;;;8.67;;
10920;SDS011;5513;50.580;8.818;2023-03-31T07:21:07;11.33;;;6.10;;
10920;SDS011;5513;50.580;8.818;2023-03-31T07:23:36;9.17;;;5.67;;
10920;SDS011;5513;50.580;8.818;2023-03-31T07:26:05;7.93;;;4.60;;
10920;SDS011;5513;50.580;8.818;2023-03-31T07:28:34;5.53;;;3.77;;
10920;SDS011;5513;50.580;8.818;2023-03-31T07:31:10;8.17;;;4.17;;
10920;SDS011;5513;50.580;8.818;2023-03-31T07:33:39;4.60;;;3.43;;
10920;SDS011;5513;50.580;8.818;2023-03-31T07:36:08;4.57;;;3.40;;
10920;SDS011;5513;50.580;8.818;2023-03-31T07:38:39;6.27;;;3.50;;
10920;SDS011;5513;50.580;8.818;2023-03-31T07:41:10;5.93;;;4.30;;
10920;SDS011;5513;50.580;8.818;2023-03-31T07:43:39;8.67;;;4.77;;
10920;SDS011;5513;50.580;8.818;2023-03-31T07:46:14;6.73;;;5.10;;
10920;SDS011;5513;50.580;8.818;2023-03-31T07:48:43;7.27;;;4.70;;
10920;SDS011;5513;50.580;8.818;2023-03-31T07:51:13;5.63;;;4.90;;
10920;SDS011;5513;50.580;8.818;2023-03-31T07:53:42;6.53;;;4.80;;
10920;SDS011;5513;50.580;8.818;2023-03-31T07:56:14;8.00;;;6.20;;
10920;SDS011;5513;50.580;8.818;2023-03-31T07:58:43;7.83;;;5.40;;
10920;SDS011;5513;50.580;8.818;2023-03-31T08:01:16;4.27;;;3.87;;
10920;SDS011;5513;50.580;8.818;2023-03-31T08:03:46;5.20;;;4.00;;
10920;SDS011;5513;50.580;8.818;2023-03-31T08:06:16;7.57;;;3.80;;
10920;SDS011;5513;50.580;8.818;2023-03-31T08:08:46;5.90;;;3.97;;
10920;SDS011;5513;50.580;8.818;2023-03-31T08:11:15;4.73;;;3.80;;
10920;SDS011;5513;50.580;8.818;2023-03-31T08:13:46;3.33;;;2.77;;
10920;SDS011;5513;50.580;8.818;2023-03-31T08:16:17;5.63;;;2.87;;
10920;SDS011;5513;50.580;8.818;2023-03-31T08:18:51;5.20;;;3.00;;
10920;SDS011;5513;50.580;8.818;2023-03-31T08:21:19;3.47;;;3.17;;
10920;SDS011;5513;50.580;8.818;2023-03-31T08:23:52;4.20;;;2.70;;
10920;SDS011;5513;50.580;8.818;2023-03-31T08:26:22;3.13;;;2.60;;
10920;SDS011;5513;50.580;8.818;2023-03-31T08:28:56;3.93;;;3.13;;
10920;SDS011;5513;50.580;8.818;2023-03-31T08:31:26;5.20;;;2.37;;
10920;SDS011;5513;50.580;8.818;2023-03-31T08:33:56;5.10;;;2.60;;
10920;SDS011;5513;50.580;8.818;2023-03-31T08:36:25;4.10;;;2.30;;
10920;SDS011;5513;50.580;8.818;2023-03-31T08:38:55;3.30;;;2.33;;
10920;SDS011;5513;50.580;8.818;2023-03-31T08:41:26;3.93;;;2.37;;
10920;SDS011;5513;50.580;8.818;2023-03-31T08:44:03;2.43;;;1.63;;
10920;SDS011;5513;50.580;8.818;2023-03-31T08:46:39;4.83;;;1.80;;
10920;SDS011;5513;50.580;8.818;2023-03-31T08:49:12;4.23;;;2.03;;
10920;SDS011;5513;50.580;8.818;2023-03-31T08:51:45;2.17;;;1.07;;
10920;SDS011;5513;50.580;8.818;2023-03-31T08:54:16;1.67;;;1.03;;
10920;SDS011;5513;50.580;8.818;2023-03-31T08:56:58;4.30;;;1.70;;
10920;SDS011;5513;50.580;8.818;2023-03-31T08:59:31;2.13;;;1.00;;
10920;SDS011;5513;50.580;8.818;2023-03-31T09:02:09;3.13;;;1.23;;
10920;SDS011;5513;50.580;8.818;2023-03-31T09:04:53;1.10;;;1.00;;
10920;SDS011;5513;50.580;8.818;2023-03-31T09:07:37;1.93;;;1.10;;
10920;SDS011;5513;50.580;8.818;2023-03-31T09:10:19;2.00;;;1.30;;
10920;SDS011;5513;50.580;8.818;2023-03-31T09:12:56;3.80;;;2.10;;
10920;SDS011;5513;50.580;8.818;2023-03-31T09:15:31;3.80;;;2.40;;
10920;SDS011;5513;50.580;8.818;2023-03-31T09:18:10;2.70;;;1.90;;
10920;SDS011;5513;50.580;8.818;2023-03-31T09:20:46;3.17;;;2.00;;
10920;SDS011;5513;50.580;8.818;2023-03-31T09:23:21;8.27;;;4.50;;
10920;SDS011;5513;50.580;8.818;2023-03-31T09:25:57;3.60;;;1.90;;
10920;SDS011;5513;50.580;8.818;2023-03-31T09:28:30;1.97;;;1.50;;
10920;SDS011;5513;50.580;8.818;2023-03-31T09:31:02;2.20;;;1.40;;
10920;SDS011;5513;50.580;8.818;2023-03-31T09:33:36;3.90;;;1.27;;
10920;SDS011;5513;50.580;8.818;2023-03-31T09:36:12;7.23;;;3.60;;
10920;SDS011;5513;50.580;8.818;2023-03-31T09:38:43;3.83;;;1.50;;
10920;SDS011;5513;50.580;8.818;2023-03-31T09:41:12;7.23;;;4.83;;
10920;SDS011;5513;50.580;8.818;2023-03-31T09:43:42;5.07;;;2.03;;
10920;SDS011;5513;50.580;8.818;2023-03-31T09:46:14;5.27;;;2.13;;
10920;SDS011;5513;50.580;8.818;2023-03-31T09:48:53;4.23;;;2.00;;
10920;SDS011;5513;50.580;8.818;2023-03-31T09:51:26;6.70;;;3.50;;
10920;SDS011;5513;50.580;8.818;2023-03-31T09:54:00;6.80;;;2.17;;
10920;SDS011;5513;50.580;8.818;2023-03-31T09:56:34;9.20;;;3.47;;
10920;SDS011;5513;50.580;8.818;2023-03-31T09:59:14;7.30;;;1.70;;
10920;SDS011;5513;50.580;8.818;2023-03-31T10:01:44;4.83;;;1.43;;
10920;SDS011;5513;50.580;8.818;2023-03-31T10:04:18;6.87;;;1.90;;
10920;SDS011;5513;50.580;8.818;2023-03-31T10:06:49;5.77;;;1.60;;
10920;SDS011;5513;50.580;8.818;2023-03-31T10:09:19;6.23;;;1.80;;
10920;SDS011;5513;50.580;8.818;2023-03-31T10:11:52;6.73;;;1.87;;
10920;SDS011;5513;50.580;8.818;2023-03-31T10:14:24;8.67;;;2.10;;
10920;SDS011;5513;50.580;8.818;2023-03-31T10:16:55;4.23;;;1.80;;
10920;SDS011;5513;50.580;8.818;2023-03-31T10:19:28;7.93;;;2.30;;
10920;SDS011;5513;50.580;8.818;2023-03-31T10:22:00;6.77;;;1.80;;
10920;SDS011;5513;50.580;8.818;2023-03-31T10:24:37;9.67;;;1.93;;
10920;SDS011;5513;50.580;8.818;2023-03-31T10:27:10;5.60;;;1.77;;
10920;SDS011;5513;50.580;8.818;2023-03-31T10:29:45;5.37;;;1.40;;
10920;SDS011;5513;50.580;8.818;2023-03-31T10:32:17;5.47;;;1.70;;
10920;SDS011;5513;50.580;8.818;2023-03-31T10:34:53;16.60;;;12.07;;
10920;SDS011;5513;50.580;8.818;2023-03-31T10:37:26;7.50;;;3.43;;
10920;SDS011;5513;50.580;8.818;2023-03-31T10:39:57;4.77;;;2.03;;
10920;SDS011;5513;50.580;8.818;2023-03-31T10:42:27;5.07;;;1.93;;
10920;SDS011;5513;50.580;8.818;2023-03-31T10:45:09;6.47;;;2.13;;
10920;SDS011;5513;50.580;8.818;2023-03-31T10:47:59;4.73;;;2.43;;
10920;SDS011;5513;50.580;8.818;2023-03-31T10:50:30;2.47;;;1.20;;
10920;SDS011;5513;50.580;8.818;2023-03-31T10:53:00;5.00;;;1.00;;
10920;SDS011;5513;50.580;8.818;2023-03-31T10:55:33;2.53;;;1.00;;
10920;SDS011;5513;50.580;8.818;2023-03-31T10:58:13;4.27;;;1.20;;
10920;SDS011;5513;50.580;8.818;2023-03-31T11:00:55;2.93;;;1.30;;
10920;SDS011;5513;50.580;8.818;2023-03-31T11:06:32;6.33;;;2.03;;
10920;SDS011;5513;50.580;8.818;2023-03-31T11:09:11;3.23;;;1.17;;
10920;SDS011;5513;50.580;8.818;2023-03-31T11:11:49;2.77;;;1.00;;
10920;SDS011;5513;50.580;8.818;2023-03-31T11:14:27;3.40;;;0.80;;
10920;SDS011;5513;50.580;8.818;2023-03-31T11:17:08;2.87;;;0.70;;
10920;SDS011;5513;50.580;8.818;2023-03-31T11:19:48;1.50;;;0.70;;
10920;SDS011;5513;50.580;8.818;2023-03-31T11:22:30;2.60;;;0.90;;
10920;SDS011;5513;50.580;8.818;2023-03-31T11:25:13;1.90;;;0.93;;
10920;SDS011;5513;50.580;8.818;2023-03-31T11:27:51;3.63;;;1.10;;
10920;SDS011;5513;50.580;8.818;2023-03-31T11:30:27;3.40;;;0.90;;
10920;SDS011;5513;50.580;8.818;2023-03-31T11:33:02;2.67;;;0.80;;
10920;SDS011;5513;50.580;8.818;2023-03-31T11:35:50;2.10;;;0.77;;
10920;SDS011;5513;50.580;8.818;2023-03-31T11:41:29;3.60;;;0.93;;
10920;SDS011;5513;50.580;8.818;2023-03-31T11:44:04;3.30;;;1.10;;
10920;SDS011;5513;50.580;8.818;2023-03-31T11:46:38;5.33;;;1.73;;
10920;SDS011;5513;50.580;8.818;2023-03-31T11:49:14;2.10;;;0.80;;
10920;SDS011;5513;50.580;8.818;2023-03-31T11:51:47;4.90;;;1.70;;
10920;SDS011;5513;50.580;8.818;2023-03-31T11:54:22;5.53;;;1.53;;
10920;SDS011;5513;50.580;8.818;2023-03-31T11:56:56;4.63;;;1.30;;
10920;SDS011;5513;50.580;8.818;2023-03-31T11:59:34;3.13;;;1.40;;
10920;SDS011;5513;50.580;8.818;2023-03-31T12:02:09;4.03;;;1.57;;
10920;SDS011;5513;50.580;8.818;2023-03-31T12:04:44;6.03;;;1.80;;
10920;SDS011;5513;50.580;8.818;2023-03-31T12:07:20;5.40;;;1.30;;
10920;SDS011;5513;50.580;8.818;2023-03-31T12:09:52;5.13;;;1.00;;
10920;SDS011;5513;50.580;8.818;2023-03-31T12:12:34;5.47;;;1.23;;
10920;SDS011;5513;50.580;8.818;2023-03-31T12:15:13;3.30;;;1.20;;
10920;SDS011;5513;50.580;8.818;2023-03-31T12:17:48;2.60;;;1.03;;
10920;SDS011;5513;50.580;8.818;2023-03-31T12:20:25;2.83;;;1.03;;
10920;SDS011;5513;50.580;8.818;2023-03-31T12:22:59;4.33;;;1.20;;
10920;SDS011;5513;50.580;8.818;2023-03-31T12:25:37;3.30;;;1.40;;
10920;SDS011;5513;50.580;8.818;2023-03-31T12:28:13;6.53;;;1.83;;
10920;SDS011;5513;50.580;8.818;2023-03-31T12:30:46;5.07;;;1.87;;
10920;SDS011;5513;50.580;8.818;2023-03-31T12:33:17;8.03;;;1.73;;
10920;SDS011;5513;50.580;8.818;2023-03-31T12:35:52;7.50;;;2.17;;
10920;SDS011;5513;50.580;8.818;2023-03-31T12:38:35;7.10;;;1.77;;
10920;SDS011;5513;50.580;8.818;2023-03-31T12:41:22;9.33;;;5.57;;
10920;SDS011;5513;50.580;8.818;2023-03-31T12:49:54;6.33;;;1.87;;
10920;SDS011;5513;50.580;8.818;2023-03-31T12:52:31;4.97;;;1.80;;
10920;SDS011;5513;50.580;8.818;2023-03-31T12:55:15;4.27;;;1.40;;
10920;SDS011;5513;50.580;8.818;2023-03-31T13:01:06;3.77;;;1.00;;
10920;SDS011;5513;50.580;8.818;2023-03-31T13:03:40;4.37;;;1.20;;
10920;SDS011;5513;50.580;8.818;2023-03-31T13:09:41;4.90;;;1.30;;
10920;SDS011;5513;50.580;8.818;2023-03-31T13:12:14;4.07;;;0.73;;
10920;SDS011;5513;50.580;8.818;2023-03-31T13:14:45;3.63;;;1.40;;
10920;SDS011;5513;50.580;8.818;2023-03-31T13:17:23;5.23;;;1.40;;
10920;SDS011;5513;50.580;8.818;2023-03-31T13:19:55;4.43;;;0.97;;
10920;SDS011;5513;50.580;8.818;2023-03-31T13:22:43;8.30;;;1.60;;
10920;SDS011;5513;50.580;8.818;2023-03-31T13:28:10;2.73;;;1.00;;
10920;SDS011;5513;50.580;8.818;2023-03-31T13:30:45;21.20;;;11.07;;
10920;SDS011;5513;50.580;8.818;2023-03-31T13:33:20;4.43;;;1.80;;
10920;SDS011;5513;50.580;8.818;2023-03-31T13:35:58;3.47;;;2.23;;
10920;SDS011;5513;50.580;8.818;2023-03-31T13:38:50;4.90;;;1.80;;
10920;SDS011;5513;50.580;8.818;2023-03-31T13:41:33;3.97;;;1.33;;
10920;SDS011;5513;50.580;8.818;2023-03-31T13:44:26;3.70;;;1.00;;
10920;SDS011;5513;50.580;8.818;2023-03-31T13:47:09;3.47;;;1.10;;
10920;SDS011;5513;50.580;8.818;2023-03-31T13:50:04;6.40;;;1.70;;
10920;SDS011;5513;50.580;8.818;2023-03-31T13:53:25;5.50;;;1.73;;
10920;SDS011;5513;50.580;8.818;2023-03-31T13:56:04;4.47;;;1.13;;
10920;SDS011;5513;50.580;8.818;2023-03-31T13:58:51;6.17;;;2.87;;
10920;SDS011;5513;50.580;8.818;2023-03-31T14:01:38;11.20;;;5.63;;
10920;SDS011;5513;50.580;8.818;2023-03-31T14:04:38;10.30;;;3.97;;
10920;SDS011;5513;50.580;8.818;2023-03-31T14:07:36;12.03;;;6.20;;
10920;SDS011;5513;50.580;8.818;2023-03-31T14:10:20;7.33;;;3.17;;
10920;SDS011;5513;50.580;8.818;2023-03-31T14:12:49;7.37;;;1.73;;
10920;SDS011;5513;50.580;8.818;2023-03-31T14:15:20;8.07;;;2.20;;
10920;SDS011;5513;50.580;8.818;2023-03-31T14:17:48;5.50;;;2.07;;
10920;SDS011;5513;50.580;8.818;2023-03-31T14:20:22;6.03;;;1.50;;
10920;SDS011;5513;50.580;8.818;2023-03-31T14:22:59;8.07;;;2.83;;
10920;SDS011;5513;50.580;8.818;2023-03-31T14:25:39;7.43;;;2.10;;
10920;SDS011;5513;50.580;8.818;2023-03-31T14:28:22;8.57;;;2.43;;
10920;SDS011;5513;50.580;8.818;2023-03-31T14:31:06;6.40;;;1.53;;
10920;SDS011;5513;50.580;8.818;2023-03-31T14:33:49;5.33;;;1.87;;
10920;SDS011;5513;50.580;8.818;2023-03-31T14:36:34;4.83;;;1.87;;
10920;SDS011;5513;50.580;8.818;2023-03-31T14:39:15;5.97;;;1.33;;
10920;SDS011;5513;50.580;8.818;2023-03-31T14:41:50;7.63;;;1.90;;
10920;SDS011;5513;50.580;8.818;2023-03-31T14:44:20;4.20;;;1.37;;
10920;SDS011;5513;50.580;8.818;2023-03-31T14:46:48;9.00;;;1.90;;
10920;SDS011;5513;50.580;8.818;2023-03-31T14:49:19;4.33;;;1.37;;
10920;SDS011;5513;50.580;8.818;2023-03-31T14:51:50;7.17;;;1.40;;
10920;SDS011;5513;50.580;8.818;2023-03-31T14:54:22;5.53;;;1.37;;
10920;SDS011;5513;50.580;8.818;2023-03-31T14:56:52;4.97;;;1.60;;
10920;SDS011;5513;50.580;8.818;2023-03-31T14:59:23;2.60;;;1.37;;
10920;SDS011;5513;50.580;8.818;2023-03-31T15:01:55;4.17;;;1.10;;
10920;SDS011;5513;50.580;8.818;2023-03-31T15:04:25;9.13;;;2.10;;
10920;SDS011;5513;50.580;8.818;2023-03-31T15:07:07;5.73;;;3.03;;
10920;SDS011;5513;50.580;8.818;2023-03-31T15:09:38;6.73;;;1.20;;
10920;SDS011;5513;50.580;8.818;2023-03-31T15:12:12;5.87;;;1.83;;
10920;SDS011;5513;50.580;8.818;2023-03-31T15:14:43;6.77;;;3.63;;
10920;SDS011;5513;50.580;8.818;2023-03-31T15:17:18;6.93;;;4.43;;
10920;SDS011;5513;50.580;8.818;2023-03-31T15:19:51;4.40;;;1.30;;
10920;SDS011;5513;50.580;8.818;2023-03-31T15:22:21;5.10;;;2.03;;
10920;SDS011;5513;50.580;8.818;2023-03-31T15:24:53;5.07;;;1.23;;
10920;SDS011;5513;50.580;8.818;2023-03-31T15:27:28;9.77;;;5.97;;
10920;SDS011;5513;50.580;8.818;2023-03-31T15:30:03;4.50;;;1.80;;
10920;SDS011;5513;50.580;8.818;2023-03-31T15:32:35;5.67;;;1.60;;
10920;SDS011;5513;50.580;8.818;2023-03-31T15:35:06;3.80;;;1.33;;
10920;SDS011;5513;50.580;8.818;2023-03-31T15:37:49;4.60;;;1.37;;
10920;SDS011;5513;50.580;8.818;2023-03-31T15:40:21;5.33;;;1.87;;
10920;SDS011;5513;50.580;8.818;2023-03-31T15:42:53;5.10;;;1.30;;
10920;SDS011;5513;50.580;8.818;2023-03-31T15:45:46;4.43;;;1.30;;
10920;SDS011;5513;50.580;8.818;2023-03-31T15:48:18;3.60;;;1.30;;
10920;SDS011;5513;50.580;8.818;2023-03-31T15:50:49;3.27;;;1.10;;
10920;SDS011;5513;50.580;8.818;2023-03-31T15:53:23;3.97;;;1.43;;
10920;SDS011;5513;50.580;8.818;2023-03-31T15:55:56;7.80;;;2.70;;
10920;SDS011;5513;50.580;8.818;2023-03-31T15:58:47;3.83;;;2.00;;
10920;SDS011;5513;50.580;8.818;2023-03-31T16:01:21;3.10;;;2.40;;
10920;SDS011;5513;50.580;8.818;2023-03-31T16:03:54;3.47;;;1.10;;
10920;SDS011;5513;50.580;8.818;2023-03-31T16:06:28;2.87;;;0.80;;
10920;SDS011;5513;50.580;8.818;2023-03-31T16:09:04;14.07;;;7.23;;
10920;SDS011;5513;50.580;8.818;2023-03-31T16:11:37;5.23;;;1.83;;